Terminal Aerodrome Forecast
Issued by NWS Blacksburg, VA

Current Version | Previous Version | Graphics & Text | Print | Product List | Glossary On
Versions: 1 2 3 4 5 6 7 8 9 10 11 12 13 14 15 16 17 18 19 20 21 22 23 24 25 26 27 28 29 30 31 32 33 34 35 36
730
FTUS41 KRNK 261136
TAFBLF
TAF
KBLF 261136Z 2612/2712 27006KT P6SM SCT030
      TEMPO 2612/2615 BKN030
     FM261500 32006KT P6SM BKN040
     FM261800 34005KT P6SM SCT045 BKN080
     FM270000 VRB03KT P6SM SCT080=

USA.gov is the U.S. government's official web portal to all federal, state and local government web resources and services.